Terminal Aerodrome Forecast
Issued by NWS

Home | Current Version | Previous Version | Text Only | Print | Product List | Glossary On
Versions: 1 2 3 4 5 6 7 8 9 10 11 12 13 14 15
704
FTUS42 KTBW 211141
TAFRSW
TAF
KRSW 211141Z 2112/2212 07005KT P6SM VCSH SCT050 BKN080
      TEMPO 2112/2114 -RA BKN050
     FM211400 11007KT P6SM VCSH SCT030 BKN050
      TEMPO 2114/2118 4SM SHRA BKN030
     FM211800 17007KT P6SM VCSH SCT030 BKN050
     FM212100 23006KT P6SM SCT035 SCT100 BKN250
     FM220000 VRB03KT P6SM SCT100 BKN250
     FM220700 00000KT 4SM BR SCT005 SCT040
      TEMPO 2208/2212 1SM BR BKN005=

USA.gov is the U.S. government's official web portal to all federal, state and local government web resources and services.